sensor_id;sensor_type;location;lat;lon;timestamp;P1;durP1;ratioP1;P2;durP2;ratioP2
57824;SDS011;43912;44.188;21.094;2022-08-19T00:02:13;10.38;;;6.50;;
57824;SDS011;43912;44.188;21.094;2022-08-19T00:04:39;10.75;;;6.00;;
57824;SDS011;43912;44.188;21.094;2022-08-19T00:07:05;11.27;;;6.60;;
57824;SDS011;43912;44.188;21.094;2022-08-19T00:09:31;13.40;;;6.85;;
57824;SDS011;43912;44.188;21.094;2022-08-19T00:11:58;10.57;;;6.65;;
57824;SDS011;43912;44.188;21.094;2022-08-19T00:14:24;9.93;;;5.82;;
57824;SDS011;43912;44.188;21.094;2022-08-19T00:16:51;10.85;;;6.40;;
57824;SDS011;43912;44.188;21.094;2022-08-19T00:19:19;10.82;;;6.05;;
57824;SDS011;43912;44.188;21.094;2022-08-19T00:21:46;11.57;;;6.35;;
57824;SDS011;43912;44.188;21.094;2022-08-19T00:24:12;10.20;;;6.85;;
57824;SDS011;43912;44.188;21.094;2022-08-19T00:26:40;12.27;;;6.60;;
57824;SDS011;43912;44.188;21.094;2022-08-19T00:29:07;13.00;;;7.05;;
57824;SDS011;43912;44.188;21.094;2022-08-19T00:31:34;12.35;;;6.72;;
57824;SDS011;43912;44.188;21.094;2022-08-19T00:34:00;13.00;;;7.85;;
57824;SDS011;43912;44.188;21.094;2022-08-19T00:36:27;10.85;;;7.55;;
57824;SDS011;43912;44.188;21.094;2022-08-19T00:38:54;15.00;;;7.15;;
57824;SDS011;43912;44.188;21.094;2022-08-19T00:41:22;10.02;;;6.43;;
57824;SDS011;43912;44.188;21.094;2022-08-19T00:46:24;10.65;;;6.53;;
57824;SDS011;43912;44.188;21.094;2022-08-19T00:48:50;10.80;;;6.28;;
57824;SDS011;43912;44.188;21.094;2022-08-19T00:51:16;12.30;;;6.30;;
57824;SDS011;43912;44.188;21.094;2022-08-19T00:53:42;14.50;;;7.10;;
57824;SDS011;43912;44.188;21.094;2022-08-19T00:56:08;9.98;;;6.95;;
57824;SDS011;43912;44.188;21.094;2022-08-19T00:58:35;11.93;;;7.13;;
57824;SDS011;43912;44.188;21.094;2022-08-19T01:01:02;10.63;;;6.35;;
57824;SDS011;43912;44.188;21.094;2022-08-19T01:03:29;10.25;;;6.72;;
57824;SDS011;43912;44.188;21.094;2022-08-19T01:05:55;11.60;;;7.75;;
57824;SDS011;43912;44.188;21.094;2022-08-19T01:08:22;12.32;;;7.18;;
57824;SDS011;43912;44.188;21.094;2022-08-19T01:10:53;15.48;;;8.40;;
57824;SDS011;43912;44.188;21.094;2022-08-19T01:13:20;15.52;;;8.15;;
57824;SDS011;43912;44.188;21.094;2022-08-19T01:15:50;13.43;;;7.68;;
57824;SDS011;43912;44.188;21.094;2022-08-19T01:18:18;12.55;;;8.27;;
57824;SDS011;43912;44.188;21.094;2022-08-19T01:20:45;12.80;;;8.10;;
57824;SDS011;43912;44.188;21.094;2022-08-19T01:23:11;12.98;;;9.10;;
57824;SDS011;43912;44.188;21.094;2022-08-19T01:28:22;12.80;;;7.57;;
57824;SDS011;43912;44.188;21.094;2022-08-19T01:30:50;10.98;;;8.10;;
57824;SDS011;43912;44.188;21.094;2022-08-19T01:33:16;10.73;;;7.70;;
57824;SDS011;43912;44.188;21.094;2022-08-19T01:35:42;14.52;;;8.25;;
57824;SDS011;43912;44.188;21.094;2022-08-19T01:38:10;13.82;;;7.28;;
57824;SDS011;43912;44.188;21.094;2022-08-19T01:40:37;15.35;;;7.70;;
57824;SDS011;43912;44.188;21.094;2022-08-19T01:43:04;11.77;;;7.63;;
57824;SDS011;43912;44.188;21.094;2022-08-19T01:45:32;18.77;;;9.30;;
57824;SDS011;43912;44.188;21.094;2022-08-19T01:47:58;18.90;;;10.75;;
57824;SDS011;43912;44.188;21.094;2022-08-19T01:50:24;22.70;;;13.15;;
57824;SDS011;43912;44.188;21.094;2022-08-19T01:52:51;13.55;;;8.90;;
57824;SDS011;43912;44.188;21.094;2022-08-19T01:55:19;13.43;;;8.18;;
57824;SDS011;43912;44.188;21.094;2022-08-19T01:57:46;12.90;;;7.88;;
57824;SDS011;43912;44.188;21.094;2022-08-19T02:00:14;13.15;;;7.82;;
57824;SDS011;43912;44.188;21.094;2022-08-19T02:02:41;11.13;;;6.85;;
57824;SDS011;43912;44.188;21.094;2022-08-19T02:05:07;13.00;;;7.03;;
57824;SDS011;43912;44.188;21.094;2022-08-19T02:07:34;11.45;;;7.78;;
57824;SDS011;43912;44.188;21.094;2022-08-19T02:10:07;12.40;;;7.78;;
57824;SDS011;43912;44.188;21.094;2022-08-19T02:12:34;12.32;;;7.07;;
57824;SDS011;43912;44.188;21.094;2022-08-19T02:15:00;13.00;;;7.60;;
57824;SDS011;43912;44.188;21.094;2022-08-19T02:17:27;11.20;;;6.75;;
57824;SDS011;43912;44.188;21.094;2022-08-19T02:19:54;12.18;;;7.72;;
57824;SDS011;43912;44.188;21.094;2022-08-19T02:22:20;13.02;;;6.88;;
57824;SDS011;43912;44.188;21.094;2022-08-19T02:24:46;11.82;;;7.65;;
57824;SDS011;43912;44.188;21.094;2022-08-19T02:27:13;11.25;;;7.10;;
57824;SDS011;43912;44.188;21.094;2022-08-19T02:29:39;10.25;;;7.38;;
57824;SDS011;43912;44.188;21.094;2022-08-19T02:32:06;11.65;;;7.07;;
57824;SDS011;43912;44.188;21.094;2022-08-19T02:34:32;12.05;;;7.55;;
57824;SDS011;43912;44.188;21.094;2022-08-19T02:36:58;11.40;;;7.38;;
57824;SDS011;43912;44.188;21.094;2022-08-19T02:39:24;13.48;;;8.40;;
57824;SDS011;43912;44.188;21.094;2022-08-19T02:41:51;16.45;;;7.93;;
57824;SDS011;43912;44.188;21.094;2022-08-19T02:44:18;11.52;;;8.25;;
57824;SDS011;43912;44.188;21.094;2022-08-19T02:46:45;14.27;;;8.77;;
57824;SDS011;43912;44.188;21.094;2022-08-19T02:49:11;12.80;;;8.02;;
57824;SDS011;43912;44.188;21.094;2022-08-19T02:51:39;11.43;;;7.47;;
57824;SDS011;43912;44.188;21.094;2022-08-19T02:54:06;11.63;;;7.82;;
57824;SDS011;43912;44.188;21.094;2022-08-19T02:56:36;11.85;;;7.93;;
57824;SDS011;43912;44.188;21.094;2022-08-19T02:59:02;14.77;;;8.57;;
57824;SDS011;43912;44.188;21.094;2022-08-19T03:01:35;12.35;;;7.63;;
57824;SDS011;43912;44.188;21.094;2022-08-19T03:04:03;13.73;;;8.60;;
57824;SDS011;43912;44.188;21.094;2022-08-19T03:06:30;12.13;;;8.50;;
57824;SDS011;43912;44.188;21.094;2022-08-19T03:08:56;15.02;;;8.60;;
57824;SDS011;43912;44.188;21.094;2022-08-19T03:11:24;12.55;;;8.70;;
57824;SDS011;43912;44.188;21.094;2022-08-19T03:13:51;13.00;;;8.52;;
57824;SDS011;43912;44.188;21.094;2022-08-19T03:16:18;12.82;;;8.23;;
57824;SDS011;43912;44.188;21.094;2022-08-19T03:18:45;11.95;;;8.30;;
57824;SDS011;43912;44.188;21.094;2022-08-19T03:21:15;10.90;;;7.88;;
57824;SDS011;43912;44.188;21.094;2022-08-19T03:23:41;12.82;;;7.70;;
57824;SDS011;43912;44.188;21.094;2022-08-19T03:26:07;10.85;;;7.80;;
57824;SDS011;43912;44.188;21.094;2022-08-19T03:28:34;13.25;;;8.73;;
57824;SDS011;43912;44.188;21.094;2022-08-19T03:31:04;12.45;;;8.23;;
57824;SDS011;43912;44.188;21.094;2022-08-19T03:33:31;15.63;;;10.35;;
57824;SDS011;43912;44.188;21.094;2022-08-19T03:36:02;14.15;;;10.50;;
57824;SDS011;43912;44.188;21.094;2022-08-19T03:38:28;15.57;;;10.32;;
57824;SDS011;43912;44.188;21.094;2022-08-19T03:40:54;16.08;;;11.23;;
57824;SDS011;43912;44.188;21.094;2022-08-19T03:43:20;17.58;;;12.32;;
57824;SDS011;43912;44.188;21.094;2022-08-19T03:45:47;21.48;;;13.30;;
57824;SDS011;43912;44.188;21.094;2022-08-19T03:48:14;13.65;;;10.10;;
57824;SDS011;43912;44.188;21.094;2022-08-19T03:50:42;16.55;;;9.68;;
57824;SDS011;43912;44.188;21.094;2022-08-19T03:53:08;15.60;;;9.90;;
57824;SDS011;43912;44.188;21.094;2022-08-19T03:55:38;14.48;;;8.95;;
57824;SDS011;43912;44.188;21.094;2022-08-19T03:58:05;12.52;;;8.50;;
57824;SDS011;43912;44.188;21.094;2022-08-19T04:00:31;13.02;;;8.13;;
57824;SDS011;43912;44.188;21.094;2022-08-19T04:02:58;11.93;;;8.27;;
57824;SDS011;43912;44.188;21.094;2022-08-19T04:05:26;12.95;;;8.27;;
57824;SDS011;43912;44.188;21.094;2022-08-19T04:07:53;13.02;;;8.65;;
57824;SDS011;43912;44.188;21.094;2022-08-19T04:10:23;16.92;;;11.88;;
57824;SDS011;43912;44.188;21.094;2022-08-19T04:12:49;13.75;;;10.52;;
57824;SDS011;43912;44.188;21.094;2022-08-19T04:15:15;22.48;;;15.93;;
57824;SDS011;43912;44.188;21.094;2022-08-19T04:17:42;16.73;;;13.05;;
57824;SDS011;43912;44.188;21.094;2022-08-19T04:20:08;15.25;;;11.02;;
57824;SDS011;43912;44.188;21.094;2022-08-19T04:22:34;11.75;;;8.57;;
57824;SDS011;43912;44.188;21.094;2022-08-19T04:25:01;12.15;;;9.52;;
57824;SDS011;43912;44.188;21.094;2022-08-19T04:27:27;17.67;;;8.90;;
57824;SDS011;43912;44.188;21.094;2022-08-19T04:29:54;15.18;;;8.00;;
57824;SDS011;43912;44.188;21.094;2022-08-19T04:32:20;14.82;;;7.97;;
57824;SDS011;43912;44.188;21.094;2022-08-19T04:34:47;11.88;;;8.25;;
57824;SDS011;43912;44.188;21.094;2022-08-19T04:37:13;12.82;;;8.48;;
57824;SDS011;43912;44.188;21.094;2022-08-19T04:39:39;20.65;;;9.43;;
57824;SDS011;43912;44.188;21.094;2022-08-19T04:42:24;15.02;;;8.90;;
57824;SDS011;43912;44.188;21.094;2022-08-19T04:45:06;16.75;;;8.95;;
57824;SDS011;43912;44.188;21.094;2022-08-19T04:47:32;12.45;;;8.50;;
57824;SDS011;43912;44.188;21.094;2022-08-19T04:49:58;14.55;;;8.10;;
57824;SDS011;43912;44.188;21.094;2022-08-19T04:52:24;16.50;;;8.88;;
57824;SDS011;43912;44.188;21.094;2022-08-19T04:54:50;13.25;;;8.63;;
57824;SDS011;43912;44.188;21.094;2022-08-19T04:57:17;14.85;;;8.50;;
57824;SDS011;43912;44.188;21.094;2022-08-19T04:59:43;10.48;;;7.43;;
57824;SDS011;43912;44.188;21.094;2022-08-19T05:02:09;12.80;;;7.63;;
57824;SDS011;43912;44.188;21.094;2022-08-19T05:04:36;13.63;;;7.38;;
57824;SDS011;43912;44.188;21.094;2022-08-19T05:07:04;11.93;;;6.93;;
57824;SDS011;43912;44.188;21.094;2022-08-19T05:09:30;11.10;;;7.45;;
57824;SDS011;43912;44.188;21.094;2022-08-19T05:11:56;13.13;;;8.07;;
57824;SDS011;43912;44.188;21.094;2022-08-19T05:14:22;12.35;;;7.60;;
57824;SDS011;43912;44.188;21.094;2022-08-19T05:16:48;11.98;;;7.53;;
57824;SDS011;43912;44.188;21.094;2022-08-19T05:19:14;15.75;;;8.63;;
57824;SDS011;43912;44.188;21.094;2022-08-19T05:21:59;13.27;;;10.50;;
57824;SDS011;43912;44.188;21.094;2022-08-19T05:24:44;23.67;;;17.77;;
57824;SDS011;43912;44.188;21.094;2022-08-19T05:27:10;14.25;;;11.27;;
57824;SDS011;43912;44.188;21.094;2022-08-19T05:29:37;14.60;;;10.73;;
57824;SDS011;43912;44.188;21.094;2022-08-19T05:32:04;14.48;;;12.85;;
57824;SDS011;43912;44.188;21.094;2022-08-19T05:34:33;18.65;;;14.15;;
57824;SDS011;43912;44.188;21.094;2022-08-19T05:37:01;16.52;;;12.18;;
57824;SDS011;43912;44.188;21.094;2022-08-19T05:39:28;14.55;;;10.65;;
57824;SDS011;43912;44.188;21.094;2022-08-19T05:41:56;17.17;;;9.30;;
57824;SDS011;43912;44.188;21.094;2022-08-19T05:44:27;15.73;;;10.38;;
57824;SDS011;43912;44.188;21.094;2022-08-19T05:46:55;12.43;;;8.45;;
57824;SDS011;43912;44.188;21.094;2022-08-19T05:49:22;10.88;;;8.80;;
57824;SDS011;43912;44.188;21.094;2022-08-19T05:51:48;12.93;;;8.05;;
57824;SDS011;43912;44.188;21.094;2022-08-19T05:54:15;15.20;;;8.43;;
57824;SDS011;43912;44.188;21.094;2022-08-19T05:56:41;14.25;;;9.25;;
57824;SDS011;43912;44.188;21.094;2022-08-19T05:59:08;17.60;;;11.95;;
57824;SDS011;43912;44.188;21.094;2022-08-19T06:01:37;19.80;;;15.43;;
57824;SDS011;43912;44.188;21.094;2022-08-19T06:04:03;26.35;;;19.35;;
57824;SDS011;43912;44.188;21.094;2022-08-19T06:06:29;21.95;;;16.60;;
57824;SDS011;43912;44.188;21.094;2022-08-19T06:08:55;18.23;;;14.70;;
57824;SDS011;43912;44.188;21.094;2022-08-19T06:11:23;17.38;;;12.02;;
57824;SDS011;43912;44.188;21.094;2022-08-19T06:13:51;17.83;;;13.07;;
57824;SDS011;43912;44.188;21.094;2022-08-19T06:16:20;18.27;;;14.07;;
57824;SDS011;43912;44.188;21.094;2022-08-19T06:18:50;15.57;;;12.02;;
57824;SDS011;43912;44.188;21.094;2022-08-19T06:21:22;18.33;;;14.30;;
57824;SDS011;43912;44.188;21.094;2022-08-19T06:23:48;15.40;;;11.50;;
57824;SDS011;43912;44.188;21.094;2022-08-19T06:26:16;14.45;;;9.65;;
57824;SDS011;43912;44.188;21.094;2022-08-19T06:28:43;14.18;;;11.20;;
57824;SDS011;43912;44.188;21.094;2022-08-19T06:31:12;12.10;;;9.10;;
57824;SDS011;43912;44.188;21.094;2022-08-19T06:33:40;18.35;;;10.88;;
57824;SDS011;43912;44.188;21.094;2022-08-19T06:36:06;14.05;;;9.07;;
57824;SDS011;43912;44.188;21.094;2022-08-19T06:38:33;11.68;;;7.80;;
57824;SDS011;43912;44.188;21.094;2022-08-19T06:41:03;13.48;;;8.10;;
57824;SDS011;43912;44.188;21.094;2022-08-19T06:43:29;12.70;;;8.23;;
57824;SDS011;43912;44.188;21.094;2022-08-19T06:45:55;12.13;;;7.25;;
57824;SDS011;43912;44.188;21.094;2022-08-19T06:48:21;11.73;;;7.32;;
57824;SDS011;43912;44.188;21.094;2022-08-19T06:50:47;15.18;;;7.47;;
57824;SDS011;43912;44.188;21.094;2022-08-19T06:53:16;15.35;;;7.50;;
57824;SDS011;43912;44.188;21.094;2022-08-19T06:55:44;13.35;;;7.68;;
57824;SDS011;43912;44.188;21.094;2022-08-19T06:58:10;16.95;;;8.75;;
57824;SDS011;43912;44.188;21.094;2022-08-19T07:00:36;12.00;;;7.13;;
57824;SDS011;43912;44.188;21.094;2022-08-19T07:03:03;14.05;;;7.25;;
57824;SDS011;43912;44.188;21.094;2022-08-19T07:05:29;12.93;;;6.60;;
57824;SDS011;43912;44.188;21.094;2022-08-19T07:07:55;10.55;;;6.95;;
57824;SDS011;43912;44.188;21.094;2022-08-19T07:10:22;10.13;;;6.85;;
57824;SDS011;43912;44.188;21.094;2022-08-19T07:12:48;10.13;;;5.80;;
57824;SDS011;43912;44.188;21.094;2022-08-19T07:15:15;9.40;;;6.13;;
57824;SDS011;43912;44.188;21.094;2022-08-19T07:17:41;10.27;;;5.95;;
57824;SDS011;43912;44.188;21.094;2022-08-19T07:20:08;9.85;;;6.20;;
57824;SDS011;43912;44.188;21.094;2022-08-19T07:22:35;11.70;;;5.82;;
57824;SDS011;43912;44.188;21.094;2022-08-19T07:25:02;9.75;;;5.80;;
57824;SDS011;43912;44.188;21.094;2022-08-19T07:27:29;13.57;;;6.53;;
57824;SDS011;43912;44.188;21.094;2022-08-19T07:29:55;9.63;;;6.40;;
57824;SDS011;43912;44.188;21.094;2022-08-19T07:32:21;11.02;;;6.30;;
57824;SDS011;43912;44.188;21.094;2022-08-19T07:34:47;16.63;;;11.23;;
57824;SDS011;43912;44.188;21.094;2022-08-19T07:37:13;10.75;;;8.20;;
57824;SDS011;43912;44.188;21.094;2022-08-19T07:39:39;9.70;;;6.88;;
57824;SDS011;43912;44.188;21.094;2022-08-19T07:42:07;9.40;;;6.50;;
57824;SDS011;43912;44.188;21.094;2022-08-19T07:44:34;12.10;;;5.93;;
57824;SDS011;43912;44.188;21.094;2022-08-19T07:47:00;8.80;;;5.70;;
57824;SDS011;43912;44.188;21.094;2022-08-19T07:49:26;13.52;;;6.10;;
57824;SDS011;43912;44.188;21.094;2022-08-19T07:52:04;12.02;;;5.70;;
57824;SDS011;43912;44.188;21.094;2022-08-19T07:54:31;13.40;;;6.82;;
57824;SDS011;43912;44.188;21.094;2022-08-19T07:56:59;10.13;;;6.72;;
57824;SDS011;43912;44.188;21.094;2022-08-19T07:59:27;12.43;;;6.65;;
57824;SDS011;43912;44.188;21.094;2022-08-19T08:01:53;11.32;;;6.90;;
57824;SDS011;43912;44.188;21.094;2022-08-19T08:04:20;9.35;;;6.55;;
57824;SDS011;43912;44.188;21.094;2022-08-19T08:07:05;11.70;;;7.18;;
57824;SDS011;43912;44.188;21.094;2022-08-19T08:09:50;12.90;;;7.75;;
57824;SDS011;43912;44.188;21.094;2022-08-19T08:12:18;15.45;;;9.43;;
57824;SDS011;43912;44.188;21.094;2022-08-19T08:14:48;14.63;;;8.40;;
57824;SDS011;43912;44.188;21.094;2022-08-19T08:17:15;16.52;;;7.85;;
57824;SDS011;43912;44.188;21.094;2022-08-19T08:19:42;13.93;;;7.35;;
57824;SDS011;43912;44.188;21.094;2022-08-19T08:22:08;10.85;;;6.75;;
57824;SDS011;43912;44.188;21.094;2022-08-19T08:25:00;11.45;;;6.28;;
57824;SDS011;43912;44.188;21.094;2022-08-19T08:27:26;8.27;;;4.85;;
57824;SDS011;43912;44.188;21.094;2022-08-19T08:29:54;12.15;;;5.32;;
57824;SDS011;43912;44.188;21.094;2022-08-19T08:32:20;8.68;;;5.43;;
57824;SDS011;43912;44.188;21.094;2022-08-19T08:34:46;8.60;;;5.40;;
57824;SDS011;43912;44.188;21.094;2022-08-19T08:37:13;9.02;;;5.03;;
57824;SDS011;43912;44.188;21.094;2022-08-19T08:39:39;11.07;;;5.50;;
57824;SDS011;43912;44.188;21.094;2022-08-19T08:42:13;9.57;;;5.43;;
57824;SDS011;43912;44.188;21.094;2022-08-19T08:44:58;8.57;;;5.00;;
57824;SDS011;43912;44.188;21.094;2022-08-19T08:47:25;8.55;;;5.50;;
57824;SDS011;43912;44.188;21.094;2022-08-19T08:52:22;7.85;;;4.28;;
57824;SDS011;43912;44.188;21.094;2022-08-19T08:54:50;8.20;;;4.43;;
57824;SDS011;43912;44.188;21.094;2022-08-19T08:57:23;9.18;;;5.18;;
57824;SDS011;43912;44.188;21.094;2022-08-19T08:59:51;9.07;;;4.90;;
57824;SDS011;43912;44.188;21.094;2022-08-19T09:02:19;8.60;;;4.82;;
57824;SDS011;43912;44.188;21.094;2022-08-19T09:04:45;10.55;;;5.05;;
57824;SDS011;43912;44.188;21.094;2022-08-19T09:09:45;9.00;;;4.50;;
57824;SDS011;43912;44.188;21.094;2022-08-19T09:14:52;8.95;;;4.70;;
57824;SDS011;43912;44.188;21.094;2022-08-19T09:17:24;9.32;;;5.13;;
57824;SDS011;43912;44.188;21.094;2022-08-19T09:20:18;9.70;;;4.75;;
57824;SDS011;43912;44.188;21.094;2022-08-19T09:22:42;9.73;;;5.13;;
57824;SDS011;43912;44.188;21.094;2022-08-19T09:25:16;9.48;;;4.60;;
57824;SDS011;43912;44.188;21.094;2022-08-19T09:27:42;9.07;;;5.15;;
57824;SDS011;43912;44.188;21.094;2022-08-19T09:30:10;8.32;;;4.70;;
57824;SDS011;43912;44.188;21.094;2022-08-19T09:32:37;8.52;;;5.22;;
57824;SDS011;43912;44.188;21.094;2022-08-19T09:35:06;9.45;;;4.60;;
57824;SDS011;43912;44.188;21.094;2022-08-19T09:37:33;8.73;;;4.63;;
57824;SDS011;43912;44.188;21.094;2022-08-19T09:39:59;9.77;;;4.63;;
57824;SDS011;43912;44.188;21.094;2022-08-19T09:42:25;7.78;;;4.40;;
57824;SDS011;43912;44.188;21.094;2022-08-19T09:44:51;9.35;;;5.18;;
57824;SDS011;43912;44.188;21.094;2022-08-19T09:47:17;8.65;;;4.80;;
57824;SDS011;43912;44.188;21.094;2022-08-19T09:49:43;8.05;;;4.50;;
57824;SDS011;43912;44.188;21.094;2022-08-19T09:52:10;8.65;;;4.90;;
57824;SDS011;43912;44.188;21.094;2022-08-19T09:54:37;12.55;;;5.00;;
57824;SDS011;43912;44.188;21.094;2022-08-19T09:57:04;10.88;;;5.38;;
57824;SDS011;43912;44.188;21.094;2022-08-19T09:59:30;13.57;;;5.13;;
57824;SDS011;43912;44.188;21.094;2022-08-19T10:01:57;9.60;;;5.00;;
57824;SDS011;43912;44.188;21.094;2022-08-19T10:04:23;9.93;;;4.85;;
57824;SDS011;43912;44.188;21.094;2022-08-19T10:07:09;14.85;;;5.18;;
57824;SDS011;43912;44.188;21.094;2022-08-19T10:09:35;11.20;;;5.43;;
57824;SDS011;43912;44.188;21.094;2022-08-19T10:12:02;12.45;;;4.72;;
57824;SDS011;43912;44.188;21.094;2022-08-19T10:14:29;8.73;;;4.40;;
57824;SDS011;43912;44.188;21.094;2022-08-19T10:16:55;8.95;;;4.50;;
57824;SDS011;43912;44.188;21.094;2022-08-19T10:19:21;8.18;;;4.85;;
57824;SDS011;43912;44.188;21.094;2022-08-19T10:21:47;8.40;;;4.60;;
57824;SDS011;43912;44.188;21.094;2022-08-19T10:24:13;8.55;;;4.15;;
57824;SDS011;43912;44.188;21.094;2022-08-19T10:26:40;8.48;;;4.20;;
57824;SDS011;43912;44.188;21.094;2022-08-19T10:29:12;8.85;;;3.95;;
57824;SDS011;43912;44.188;21.094;2022-08-19T10:31:41;12.38;;;4.72;;
57824;SDS011;43912;44.188;21.094;2022-08-19T10:34:07;11.07;;;4.95;;
57824;SDS011;43912;44.188;21.094;2022-08-19T10:36:34;7.40;;;4.50;;
57824;SDS011;43912;44.188;21.094;2022-08-19T10:39:02;11.35;;;4.65;;
57824;SDS011;43912;44.188;21.094;2022-08-19T10:41:30;7.53;;;4.13;;
57824;SDS011;43912;44.188;21.094;2022-08-19T10:43:57;9.82;;;4.50;;
57824;SDS011;43912;44.188;21.094;2022-08-19T10:46:25;8.85;;;4.35;;
57824;SDS011;43912;44.188;21.094;2022-08-19T10:48:51;9.27;;;3.97;;
57824;SDS011;43912;44.188;21.094;2022-08-19T10:51:18;8.77;;;4.43;;
57824;SDS011;43912;44.188;21.094;2022-08-19T10:54:03;9.00;;;4.47;;
57824;SDS011;43912;44.188;21.094;2022-08-19T10:56:29;9.95;;;4.32;;
57824;SDS011;43912;44.188;21.094;2022-08-19T10:59:14;13.05;;;4.45;;
57824;SDS011;43912;44.188;21.094;2022-08-19T11:01:42;11.07;;;3.72;;
57824;SDS011;43912;44.188;21.094;2022-08-19T11:04:08;9.57;;;4.10;;
57824;SDS011;43912;44.188;21.094;2022-08-19T11:06:39;10.98;;;4.05;;
57824;SDS011;43912;44.188;21.094;2022-08-19T11:09:06;8.10;;;4.57;;
57824;SDS011;43912;44.188;21.094;2022-08-19T11:11:32;11.13;;;4.35;;
57824;SDS011;43912;44.188;21.094;2022-08-19T11:14:05;8.27;;;4.07;;
57824;SDS011;43912;44.188;21.094;2022-08-19T11:16:31;8.68;;;4.38;;
57824;SDS011;43912;44.188;21.094;2022-08-19T11:18:58;9.70;;;4.88;;
57824;SDS011;43912;44.188;21.094;2022-08-19T11:21:26;9.50;;;4.45;;
57824;SDS011;43912;44.188;21.094;2022-08-19T11:23:53;9.00;;;4.30;;
57824;SDS011;43912;44.188;21.094;2022-08-19T11:26:20;9.02;;;4.68;;
57824;SDS011;43912;44.188;21.094;2022-08-19T11:28:47;8.77;;;4.20;;
57824;SDS011;43912;44.188;21.094;2022-08-19T11:31:14;8.85;;;4.13;;
57824;SDS011;43912;44.188;21.094;2022-08-19T11:33:41;12.68;;;4.00;;
57824;SDS011;43912;44.188;21.094;2022-08-19T11:36:08;10.07;;;4.35;;
57824;SDS011;43912;44.188;21.094;2022-08-19T11:38:34;9.55;;;4.47;;
57824;SDS011;43912;44.188;21.094;2022-08-19T11:41:02;9.48;;;4.30;;
57824;SDS011;43912;44.188;21.094;2022-08-19T11:43:28;9.30;;;4.15;;
57824;SDS011;43912;44.188;21.094;2022-08-19T11:45:55;11.15;;;4.25;;
57824;SDS011;43912;44.188;21.094;2022-08-19T11:48:22;8.32;;;4.03;;
57824;SDS011;43912;44.188;21.094;2022-08-19T11:50:48;9.45;;;4.55;;
57824;SDS011;43912;44.188;21.094;2022-08-19T11:53:15;10.05;;;4.05;;
57824;SDS011;43912;44.188;21.094;2022-08-19T11:55:41;8.57;;;4.13;;
57824;SDS011;43912;44.188;21.094;2022-08-19T11:58:08;10.73;;;4.10;;
57824;SDS011;43912;44.188;21.094;2022-08-19T12:00:34;10.25;;;3.83;;
57824;SDS011;43912;44.188;21.094;2022-08-19T12:03:01;9.45;;;3.55;;
57824;SDS011;43912;44.188;21.094;2022-08-19T12:05:27;10.23;;;3.70;;
57824;SDS011;43912;44.188;21.094;2022-08-19T12:07:54;9.43;;;3.63;;
57824;SDS011;43912;44.188;21.094;2022-08-19T12:10:21;11.88;;;4.22;;
57824;SDS011;43912;44.188;21.094;2022-08-19T12:12:47;10.65;;;3.58;;
57824;SDS011;43912;44.188;21.094;2022-08-19T12:15:14;9.52;;;3.80;;
57824;SDS011;43912;44.188;21.094;2022-08-19T12:17:41;10.35;;;3.65;;
57824;SDS011;43912;44.188;21.094;2022-08-19T12:20:08;9.55;;;3.63;;
57824;SDS011;43912;44.188;21.094;2022-08-19T12:22:38;10.18;;;3.90;;
57824;SDS011;43912;44.188;21.094;2022-08-19T12:25:09;8.85;;;3.60;;
57824;SDS011;43912;44.188;21.094;2022-08-19T12:27:36;9.02;;;3.50;;
57824;SDS011;43912;44.188;21.094;2022-08-19T12:30:03;8.57;;;3.35;;
57824;SDS011;43912;44.188;21.094;2022-08-19T12:32:29;9.57;;;3.70;;
57824;SDS011;43912;44.188;21.094;2022-08-19T12:34:55;11.77;;;3.67;;
57824;SDS011;43912;44.188;21.094;2022-08-19T12:37:22;8.05;;;3.55;;
57824;SDS011;43912;44.188;21.094;2022-08-19T12:39:48;8.50;;;2.90;;
57824;SDS011;43912;44.188;21.094;2022-08-19T12:42:14;9.00;;;3.88;;
57824;SDS011;43912;44.188;21.094;2022-08-19T12:44:41;8.90;;;3.30;;
57824;SDS011;43912;44.188;21.094;2022-08-19T12:47:08;9.00;;;3.30;;
57824;SDS011;43912;44.188;21.094;2022-08-19T12:49:35;9.70;;;3.35;;
57824;SDS011;43912;44.188;21.094;2022-08-19T12:52:02;9.57;;;3.40;;
57824;SDS011;43912;44.188;21.094;2022-08-19T12:54:29;8.02;;;3.40;;
57824;SDS011;43912;44.188;21.094;2022-08-19T12:56:56;10.90;;;3.65;;
57824;SDS011;43912;44.188;21.094;2022-08-19T12:59:22;10.23;;;3.28;;
57824;SDS011;43912;44.188;21.094;2022-08-19T13:01:48;8.63;;;3.35;;
57824;SDS011;43912;44.188;21.094;2022-08-19T13:04:14;10.13;;;3.22;;
57824;SDS011;43912;44.188;21.094;2022-08-19T13:06:41;10.77;;;3.47;;
57824;SDS011;43912;44.188;21.094;2022-08-19T13:09:07;8.23;;;3.35;;
57824;SDS011;43912;44.188;21.094;2022-08-19T13:11:34;8.18;;;2.97;;
57824;SDS011;43912;44.188;21.094;2022-08-19T13:14:02;10.95;;;3.55;;
57824;SDS011;43912;44.188;21.094;2022-08-19T13:16:28;12.30;;;3.72;;
57824;SDS011;43912;44.188;21.094;2022-08-19T13:18:55;9.35;;;3.20;;
57824;SDS011;43912;44.188;21.094;2022-08-19T13:21:23;9.63;;;3.10;;
57824;SDS011;43912;44.188;21.094;2022-08-19T13:23:50;10.82;;;3.40;;
57824;SDS011;43912;44.188;21.094;2022-08-19T13:26:16;10.02;;;3.55;;
57824;SDS011;43912;44.188;21.094;2022-08-19T13:28:43;14.05;;;3.30;;
57824;SDS011;43912;44.188;21.094;2022-08-19T13:31:29;9.90;;;3.45;;
57824;SDS011;43912;44.188;21.094;2022-08-19T13:34:14;11.77;;;3.30;;
57824;SDS011;43912;44.188;21.094;2022-08-19T13:36:41;10.15;;;3.10;;
57824;SDS011;43912;44.188;21.094;2022-08-19T13:39:07;9.95;;;3.47;;
57824;SDS011;43912;44.188;21.094;2022-08-19T13:41:34;8.63;;;3.42;;
57824;SDS011;43912;44.188;21.094;2022-08-19T13:44:01;9.95;;;3.67;;
57824;SDS011;43912;44.188;21.094;2022-08-19T13:46:27;12.02;;;3.50;;
57824;SDS011;43912;44.188;21.094;2022-08-19T13:48:54;9.05;;;3.33;;
57824;SDS011;43912;44.188;21.094;2022-08-19T13:51:21;12.07;;;4.10;;
57824;SDS011;43912;44.188;21.094;2022-08-19T13:53:47;9.05;;;3.10;;
57824;SDS011;43912;44.188;21.094;2022-08-19T13:56:15;10.35;;;3.40;;
57824;SDS011;43912;44.188;21.094;2022-08-19T13:58:41;8.05;;;3.28;;
57824;SDS011;43912;44.188;21.094;2022-08-19T14:01:09;9.80;;;3.88;;
57824;SDS011;43912;44.188;21.094;2022-08-19T14:03:35;13.05;;;3.55;;
57824;SDS011;43912;44.188;21.094;2022-08-19T14:06:01;9.25;;;3.10;;
57824;SDS011;43912;44.188;21.094;2022-08-19T14:08:27;10.07;;;3.40;;
57824;SDS011;43912;44.188;21.094;2022-08-19T14:10:57;8.48;;;3.80;;
57824;SDS011;43912;44.188;21.094;2022-08-19T14:13:23;8.85;;;3.10;;
57824;SDS011;43912;44.188;21.094;2022-08-19T14:15:49;11.40;;;3.63;;
57824;SDS011;43912;44.188;21.094;2022-08-19T14:18:16;15.23;;;3.20;;
57824;SDS011;43912;44.188;21.094;2022-08-19T14:20:43;10.02;;;3.13;;
57824;SDS011;43912;44.188;21.094;2022-08-19T14:23:09;10.02;;;8.30;;
57824;SDS011;43912;44.188;21.094;2022-08-19T14:25:37;12.90;;;3.63;;
57824;SDS011;43912;44.188;21.094;2022-08-19T14:28:03;12.75;;;4.38;;
57824;SDS011;43912;44.188;21.094;2022-08-19T14:30:31;10.65;;;4.03;;
57824;SDS011;43912;44.188;21.094;2022-08-19T14:32:58;10.57;;;3.50;;
57824;SDS011;43912;44.188;21.094;2022-08-19T14:35:25;13.90;;;4.10;;
57824;SDS011;43912;44.188;21.094;2022-08-19T14:37:52;14.18;;;3.97;;
57824;SDS011;43912;44.188;21.094;2022-08-19T14:40:20;12.60;;;4.40;;